Time;durP1;ratioP1;P1;durP2;ratioP2;P2;SDS_P1;SDS_P2;PMS_P1;PMS_P2;Temp;Humidity;BMP_temperature;BMP_pressure;BME280_temperature;BME280_humidity;BME280_pressure;Samples;Min_cycle;Max_cycle;Signal;HPM_P1;HPM_P2
2021/09/03 00:00:09;;;;;;;23.45;13.70;;;;;;;14.78;78.24;102064.38;4999319;28;20049;-75
2021/09/03 00:02:36;;;;;;;24.48;14.75;;;;;;;14.77;78.17;102068.00;4983905;28;20034;-76
2021/09/03 00:05:03;;;;;;;24.50;14.43;;;;;;;14.74;78.16;102068.28;4986383;28;20041;-74
2021/09/03 00:07:28;;;;;;;26.85;14.48;;;;;;;14.74;78.16;102070.09;4984189;28;20065;-75
2021/09/03 00:09:54;;;;;;;26.20;15.63;;;;;;;14.72;78.29;102072.84;4982997;28;20026;-74
2021/09/03 00:12:20;;;;;;;24.75;15.48;;;;;;;14.69;78.09;102064.50;4986001;28;20038;-75
2021/09/03 00:14:45;;;;;;;25.60;14.95;;;;;;;14.68;78.28;102060.25;5000212;28;20038;-76
2021/09/03 00:17:11;;;;;;;23.77;14.10;;;;;;;14.67;78.23;102063.81;4985415;28;20042;-74
2021/09/03 00:19:37;;;;;;;25.13;14.98;;;;;;;14.63;78.57;102065.91;4986896;28;20122;-75
2021/09/03 00:22:02;;;;;;;26.02;17.25;;;;;;;14.62;78.46;102063.44;5003079;28;20468;-75
2021/09/03 00:24:28;;;;;;;32.20;18.02;;;;;;;14.53;78.81;102065.97;4984470;28;20037;-77
2021/09/03 00:26:53;;;;;;;25.02;15.55;;;;;;;14.47;79.27;102060.56;4985777;28;20038;-74
2021/09/03 00:29:19;;;;;;;28.20;15.85;;;;;;;14.47;79.31;102056.16;5003861;28;20097;-74
2021/09/03 00:31:45;;;;;;;25.38;15.35;;;;;;;14.46;79.27;102064.13;4984081;28;20353;-74
2021/09/03 00:34:10;;;;;;;23.95;15.23;;;;;;;14.41;79.24;102059.38;4999082;28;20515;-75
2021/09/03 00:36:36;;;;;;;23.23;15.20;;;;;;;14.40;79.13;102055.09;4987531;28;20310;-74
2021/09/03 00:39:01;;;;;;;24.55;15.70;;;;;;;14.37;79.22;102052.78;5004352;28;20038;-75
2021/09/03 00:41:28;;;;;;;25.17;15.60;;;;;;;14.35;79.30;102044.28;4988331;28;20149;-75
2021/09/03 00:43:53;;;;;;;24.48;15.52;;;;;;;14.33;79.02;102041.84;4988237;28;20034;-74
2021/09/03 00:46:19;;;;;;;32.95;16.92;;;;;;;14.31;79.08;102042.97;5005658;28;20034;-75
2021/09/03 00:48:44;;;;;;;23.15;15.45;;;;;;;14.28;79.32;102041.50;4986748;28;20030;-74
2021/09/03 00:51:09;;;;;;;27.45;16.52;;;;;;;14.25;79.27;102033.94;4986880;28;20026;-74
2021/09/03 00:53:36;;;;;;;23.52;14.85;;;;;;;14.21;79.35;102036.03;4991279;28;20049;-76
2021/09/03 00:56:02;;;;;;;25.60;15.95;;;;;;;14.19;79.23;102037.97;4990214;28;20096;-75
2021/09/03 00:58:27;;;;;;;26.15;14.82;;;;;;;14.18;79.14;102040.72;5002289;28;20076;-76
2021/09/03 01:00:53;;;;;;;26.33;16.23;;;;;;;14.12;79.46;102039.53;4984898;28;20058;-74
2021/09/03 01:03:18;;;;;;;25.55;16.20;;;;;;;14.05;79.78;102040.28;4988885;28;20026;-74
2021/09/03 01:05:44;;;;;;;22.55;13.95;;;;;;;14.02;79.76;102030.97;4986886;28;20350;-74
2021/09/03 01:08:10;;;;;;;30.48;15.13;;;;;;;13.99;79.68;102033.88;5004538;28;20034;-75
2021/09/03 01:10:36;;;;;;;22.95;13.85;;;;;;;13.97;79.62;102036.63;5002179;28;20157;-74
2021/09/03 01:13:03;;;;;;;22.20;13.85;;;;;;;13.94;79.40;102036.13;4986020;28;20022;-74
2021/09/03 01:15:28;;;;;;;22.80;14.35;;;;;;;13.89;79.54;102023.53;4986939;28;20053;-74
2021/09/03 01:17:54;;;;;;;20.35;13.82;;;;;;;13.83;79.27;102024.94;5000661;28;20053;-74
2021/09/03 01:20:19;;;;;;;21.73;13.20;;;;;;;13.72;79.32;102019.13;4986646;28;20034;-74
2021/09/03 01:22:45;;;;;;;24.17;13.93;;;;;;;13.62;79.41;102020.00;5004698;28;20045;-74
2021/09/03 01:25:11;;;;;;;24.63;15.02;;;;;;;13.54;79.56;102021.69;4988459;28;20028;-74
2021/09/03 01:27:37;;;;;;;21.50;13.40;;;;;;;13.53;79.40;102015.66;5005759;28;20026;-74
2021/09/03 01:30:04;;;;;;;20.02;12.80;;;;;;;13.55;79.54;102020.72;4988685;28;20100;-73
2021/09/03 01:32:30;;;;;;;23.10;15.57;;;;;;;13.55;79.59;102012.91;5001549;28;20027;-74
2021/09/03 01:34:55;;;;;;;24.08;14.43;;;;;;;13.53;79.94;102012.22;4985220;28;20451;-74
2021/09/03 01:37:21;;;;;;;23.70;15.90;;;;;;;13.50;80.08;102012.50;4989061;28;20041;-75
2021/09/03 01:39:47;;;;;;;23.25;13.75;;;;;;;13.48;79.71;102012.66;5002407;28;20145;-75
2021/09/03 01:42:12;;;;;;;24.27;14.60;;;;;;;13.51;79.89;102012.38;4987499;28;20035;-75
2021/09/03 01:44:38;;;;;;;22.13;14.45;;;;;;;13.48;80.00;102010.03;5001246;28;20042;-74
2021/09/03 01:47:03;;;;;;;31.65;16.85;;;;;;;13.48;80.13;102012.66;5003118;28;20056;-74
2021/09/03 01:49:28;;;;;;;28.88;16.48;;;;;;;13.49;80.36;102006.50;4988543;28;20045;-74
2021/09/03 01:51:54;;;;;;;24.45;15.07;;;;;;;13.51;80.07;102011.56;5000372;28;20045;-74
2021/09/03 01:54:19;;;;;;;23.55;15.75;;;;;;;13.50;79.91;102007.31;5002494;28;20030;-75
2021/09/03 01:56:45;;;;;;;24.98;16.27;;;;;;;13.49;79.85;101996.06;4988046;28;20030;-74
2021/09/03 01:59:10;;;;;;;25.95;15.13;;;;;;;13.44;79.93;101999.09;4988174;28;20554;-74
2021/09/03 02:01:36;;;;;;;23.17;15.18;;;;;;;13.43;79.99;102002.69;5001314;28;20064;-75
2021/09/03 02:04:01;;;;;;;29.67;17.17;;;;;;;13.39;80.13;102000.50;4985882;28;20050;-74
2021/09/03 02:06:27;;;;;;;22.27;14.25;;;;;;;13.35;80.40;101993.94;4999239;28;20038;-75
2021/09/03 02:08:52;;;;;;;28.90;16.45;;;;;;;13.34;80.37;101989.72;4984620;28;20034;-75
2021/09/03 02:11:18;;;;;;;24.15;15.40;;;;;;;13.30;80.28;101993.50;4985412;28;20037;-74
2021/09/03 02:13:44;;;;;;;23.98;14.90;;;;;;;13.28;80.23;101998.91;4986339;28;20161;-74
2021/09/03 02:16:10;;;;;;;31.60;16.70;;;;;;;13.21;80.19;101990.81;5000690;28;20022;-74
2021/09/03 02:18:35;;;;;;;23.63;15.77;;;;;;;13.15;80.29;101996.63;4985553;28;20038;-74
2021/09/03 02:21:01;;;;;;;23.92;14.52;;;;;;;13.11;80.65;101990.06;5000897;28;20396;-74
2021/09/03 02:23:28;;;;;;;28.63;16.30;;;;;;;13.09;80.61;101992.00;5000115;28;20030;-75
2021/09/03 02:25:54;;;;;;;25.80;16.45;;;;;;;13.08;80.91;101987.72;4999831;28;20037;-75
2021/09/03 02:28:19;;;;;;;33.45;19.17;;;;;;;13.10;80.97;101990.19;5001450;28;20033;-74
2021/09/03 02:30:45;;;;;;;28.25;16.35;;;;;;;13.09;81.06;101989.38;5000840;28;20038;-74
2021/09/03 02:33:11;;;;;;;27.75;16.80;;;;;;;13.09;81.05;101991.16;4985294;28;20055;-74
2021/09/03 02:35:37;;;;;;;28.98;16.20;;;;;;;13.08;80.72;101992.13;4985157;28;20030;-74
2021/09/03 02:38:03;;;;;;;29.05;17.48;;;;;;;13.08;80.57;101994.72;4985938;28;20094;-74
2021/09/03 02:40:29;;;;;;;26.73;16.00;;;;;;;13.07;80.59;101991.28;4985382;28;20076;-74
2021/09/03 02:42:55;;;;;;;23.67;16.17;;;;;;;13.05;80.51;101986.25;4998927;28;20034;-74
2021/09/03 02:45:21;;;;;;;26.80;15.65;;;;;;;13.04;80.46;101984.59;4986277;28;20403;-74
2021/09/03 02:47:47;;;;;;;26.30;16.05;;;;;;;13.03;80.65;101990.78;5002248;28;20058;-73
2021/09/03 02:50:13;;;;;;;30.50;16.55;;;;;;;13.01;80.56;101978.84;4985066;28;20115;-74
2021/09/03 02:52:38;;;;;;;28.27;15.57;;;;;;;13.00;80.46;101985.03;4984392;28;20536;-75
2021/09/03 02:55:04;;;;;;;26.33;16.67;;;;;;;12.97;80.48;101975.72;4998911;28;20315;-75
2021/09/03 02:57:30;;;;;;;25.90;15.15;;;;;;;12.94;80.72;101980.38;4985731;28;20030;-75
2021/09/03 02:59:56;;;;;;;23.92;15.32;;;;;;;12.89;81.05;101975.63;4987122;28;20495;-75
2021/09/03 03:02:21;;;;;;;26.80;15.93;;;;;;;12.88;81.08;101973.16;4989750;28;20031;-75
2021/09/03 03:04:46;;;;;;;21.77;14.57;;;;;;;12.85;81.00;101966.44;4984700;28;20073;-74
2021/09/03 03:07:12;;;;;;;26.65;14.63;;;;;;;12.81;81.08;101970.31;4984348;28;20054;-74
2021/09/03 03:09:38;;;;;;;22.85;15.15;;;;;;;12.76;80.72;101967.31;5002957;28;20117;-74
2021/09/03 03:12:04;;;;;;;25.20;16.00;;;;;;;12.75;80.66;101963.88;4987472;28;20046;-74
2021/09/03 03:14:33;;;;;;;28.38;16.52;;;;;;;12.74;80.97;101961.41;4998398;28;20045;-74
2021/09/03 03:17:02;;;;;;;26.10;15.50;;;;;;;12.71;81.15;101962.50;5000513;28;20062;-74
2021/09/03 03:19:29;;;;;;;27.63;14.93;;;;;;;12.69;81.29;101959.22;5000613;28;20041;-74
2021/09/03 03:21:55;;;;;;;25.92;15.30;;;;;;;12.68;81.45;101949.78;4984842;28;20038;-74
2021/09/03 03:24:20;;;;;;;26.33;15.20;;;;;;;12.68;81.21;101954.16;4997790;28;20046;-74
2021/09/03 03:26:47;;;;;;;27.48;15.95;;;;;;;12.69;80.74;101961.03;4986925;28;20038;-74
2021/09/03 03:29:12;;;;;;;20.42;13.18;;;;;;;12.64;80.80;101951.84;5001741;28;20029;-74
2021/09/03 03:31:38;;;;;;;24.58;15.73;;;;;;;12.59;81.14;101946.25;4985250;28;20066;-74
2021/09/03 03:34:04;;;;;;;20.83;13.25;;;;;;;12.56;81.23;101948.31;4983564;28;20038;-75
2021/09/03 03:36:29;;;;;;;23.83;15.50;;;;;;;12.55;81.35;101946.69;4998568;28;20483;-74
2021/09/03 03:38:55;;;;;;;24.80;16.15;;;;;;;12.53;81.26;101949.44;4989144;28;20511;-75
2021/09/03 03:41:21;;;;;;;28.15;15.73;;;;;;;12.52;81.08;101945.16;5000132;28;20034;-74
2021/09/03 03:43:46;;;;;;;26.02;15.50;;;;;;;12.43;81.48;101939.03;4999764;28;20042;-74
2021/09/03 03:46:12;;;;;;;33.90;14.70;;;;;;;12.39;81.56;101947.25;5001098;28;20019;-74
2021/09/03 03:48:38;;;;;;;24.55;14.73;;;;;;;12.37;81.25;101934.38;4986536;28;20392;-74
2021/09/03 03:51:04;;;;;;;19.88;13.25;;;;;;;12.35;81.44;101931.09;4988500;28;20045;-74
2021/09/03 03:53:29;;;;;;;24.70;15.55;;;;;;;12.33;81.40;101938.22;5001516;28;20060;-74
2021/09/03 03:55:55;;;;;;;26.75;16.48;;;;;;;12.32;81.33;101930.56;4983862;28;20088;-74
2021/09/03 03:58:20;;;;;;;30.42;16.95;;;;;;;12.29;81.61;101931.66;4982341;28;20481;-75
2021/09/03 04:00:46;;;;;;;24.00;16.25;;;;;;;12.29;81.75;101936.06;4999884;28;20053;-75
2021/09/03 04:03:11;;;;;;;24.48;15.23;;;;;;;12.25;81.80;101935.50;4984618;28;20034;-74
2021/09/03 04:05:37;;;;;;;28.85;16.67;;;;;;;12.24;81.79;101934.69;4989818;28;20049;-75
2021/09/03 04:08:03;;;;;;;28.63;15.57;;;;;;;12.20;82.06;101930.72;4985359;28;20037;-75
2021/09/03 04:10:28;;;;;;;26.90;15.80;;;;;;;12.19;82.08;101930.88;4988255;28;20034;-74
2021/09/03 04:12:54;;;;;;;26.20;15.30;;;;;;;12.14;81.95;101931.28;4987875;28;20038;-74
2021/09/03 04:15:20;;;;;;;27.90;16.05;;;;;;;12.11;82.36;101926.38;5001107;28;20037;-74
2021/09/03 04:17:45;;;;;;;27.45;16.15;;;;;;;12.10;82.15;101924.72;5000526;28;20061;-75
2021/09/03 04:20:11;;;;;;;23.35;13.98;;;;;;;12.08;82.24;101926.63;4987972;28;20061;-75
2021/09/03 04:22:36;;;;;;;24.95;15.40;;;;;;;12.02;82.15;101922.00;4987925;28;20041;-75
2021/09/03 04:25:06;;;;;;;22.88;14.00;;;;;;;11.98;82.22;101918.00;5000145;28;20060;-75
2021/09/03 04:27:33;;;;;;;25.50;14.65;;;;;;;11.91;82.26;101922.97;5001530;28;20503;-75
2021/09/03 04:29:58;;;;;;;22.73;14.85;;;;;;;11.87;82.15;101921.56;4986829;28;20035;-75
2021/09/03 04:32:24;;;;;;;24.30;14.85;;;;;;;11.83;82.17;101922.81;4986839;28;20041;-75
2021/09/03 04:34:50;;;;;;;22.40;13.82;;;;;;;11.80;82.02;101929.06;4984019;28;20038;-76
2021/09/03 04:37:15;;;;;;;19.52;13.98;;;;;;;11.79;81.94;101926.59;4986634;28;20031;-75
2021/09/03 04:39:41;;;;;;;20.90;13.88;;;;;;;11.78;82.05;101927.56;5004513;28;20480;-75
2021/09/03 04:42:07;;;;;;;20.73;13.05;;;;;;;11.79;81.92;101931.81;4986193;28;20019;-76
2021/09/03 04:44:33;;;;;;;26.50;15.48;;;;;;;11.79;81.66;101924.84;5000943;28;20060;-74
2021/09/03 04:46:58;;;;;;;25.70;14.90;;;;;;;11.81;81.46;101935.94;5001448;28;20064;-75
2021/09/03 04:49:24;;;;;;;20.23;13.13;;;;;;;11.80;81.54;101930.84;4987146;28;20033;-75
2021/09/03 04:51:49;;;;;;;24.38;14.35;;;;;;;11.79;81.45;101930.03;5002886;28;20041;-75
2021/09/03 04:54:15;;;;;;;21.77;13.70;;;;;;;11.80;81.65;101929.06;4989351;28;20042;-75
2021/09/03 04:56:41;;;;;;;28.80;15.95;;;;;;;11.81;81.65;101928.13;5000509;28;20412;-75
2021/09/03 04:59:06;;;;;;;22.40;15.20;;;;;;;11.79;81.88;101924.84;5001436;28;20022;-75
2021/09/03 05:01:32;;;;;;;25.98;15.23;;;;;;;11.79;81.90;101926.59;5002942;28;20018;-76
2021/09/03 05:03:58;;;;;;;24.38;15.32;;;;;;;11.79;81.99;101918.81;5000724;28;20506;-75
2021/09/03 05:06:23;;;;;;;26.70;15.25;;;;;;;11.81;82.00;101922.09;5003182;28;20030;-75
2021/09/03 05:08:48;;;;;;;25.70;15.02;;;;;;;11.75;82.02;101915.66;4988725;28;20030;-75
2021/09/03 05:11:14;;;;;;;24.55;15.30;;;;;;;11.73;82.28;101917.56;5002732;28;20026;-75
2021/09/03 05:13:40;;;;;;;26.13;14.98;;;;;;;11.72;82.27;101915.13;4986255;28;20038;-75
2021/09/03 05:16:05;;;;;;;24.55;14.43;;;;;;;11.68;82.26;101912.81;5001962;28;20030;-76
2021/09/03 05:18:31;;;;;;;27.30;15.43;;;;;;;11.67;82.61;101910.34;4988451;28;20042;-75
2021/09/03 05:20:57;;;;;;;27.23;14.43;;;;;;;11.66;82.49;101908.72;4985255;28;20046;-75
2021/09/03 05:23:22;;;;;;;22.75;14.18;;;;;;;11.65;82.47;101915.66;5002280;28;20031;-76
2021/09/03 05:25:48;;;;;;;24.38;14.88;;;;;;;11.66;82.47;101916.50;4990270;28;20041;-75
2021/09/03 05:28:13;;;;;;;24.05;14.35;;;;;;;11.66;82.29;101919.09;4986257;28;20033;-75
2021/09/03 05:30:39;;;;;;;21.92;13.95;;;;;;;11.68;82.25;101914.59;4987751;28;20045;-75
2021/09/03 05:33:04;;;;;;;22.90;13.57;;;;;;;11.68;82.24;101917.19;5003002;28;20400;-75
2021/09/03 05:35:30;;;;;;;23.83;15.00;;;;;;;11.70;82.49;101928.25;4986663;28;20042;-75
2021/09/03 05:37:56;;;;;;;24.80;15.35;;;;;;;11.74;82.37;101929.63;4984868;28;20163;-75
2021/09/03 05:40:22;;;;;;;21.60;14.10;;;;;;;11.77;82.37;101920.72;4988573;28;20081;-75
2021/09/03 05:42:48;;;;;;;19.20;13.48;;;;;;;11.81;82.09;101925.53;5003015;28;20026;-75
2021/09/03 05:45:14;;;;;;;20.75;13.80;;;;;;;11.85;81.96;101924.28;5001035;28;20530;-75
2021/09/03 05:47:46;;;;;;;29.20;15.75;;;;;;;11.90;81.89;101934.28;5001492;28;20018;-75
2021/09/03 05:50:13;;;;;;;25.42;14.98;;;;;;;11.93;81.99;101931.44;5000731;28;20089;-75
2021/09/03 05:52:38;;;;;;;22.83;13.90;;;;;;;11.97;81.97;101932.78;4987127;28;20038;-75
2021/09/03 05:55:04;;;;;;;27.15;14.90;;;;;;;12.01;82.23;101925.53;4984561;28;20053;-75
2021/09/03 05:57:30;;;;;;;26.05;14.85;;;;;;;12.05;82.17;101925.16;5005325;28;20034;-75
2021/09/03 05:59:55;;;;;;;21.55;13.52;;;;;;;12.10;82.46;101929.09;4986576;28;20070;-75
2021/09/03 06:02:21;;;;;;;22.92;14.45;;;;;;;12.14;82.52;101927.88;4986410;28;20046;-75
2021/09/03 06:04:47;;;;;;;24.63;14.90;;;;;;;12.17;82.33;101931.00;4987010;28;20038;-75
2021/09/03 06:07:12;;;;;;;24.27;14.68;;;;;;;12.21;82.55;101927.16;4984171;28;20038;-74
2021/09/03 06:09:38;;;;;;;21.83;13.43;;;;;;;12.26;82.33;101924.13;5001348;28;20038;-75
2021/09/03 06:12:04;;;;;;;23.95;15.25;;;;;;;12.31;82.58;101921.13;5001151;28;20034;-75
2021/09/03 06:14:29;;;;;;;25.25;14.30;;;;;;;12.36;82.69;101926.75;4989519;28;20038;-75
2021/09/03 06:16:55;;;;;;;20.27;14.13;;;;;;;12.41;82.53;101924.53;5001571;28;20042;-75
2021/09/03 06:19:21;;;;;;;24.48;14.38;;;;;;;12.45;83.17;101921.50;4987849;28;20038;-75
2021/09/03 06:21:47;;;;;;;26.80;17.15;;;;;;;12.52;83.61;101926.97;5002070;28;20073;-76
2021/09/03 06:24:29;;;;;;;39.63;21.73;;;;;;;12.63;85.48;101915.56;4985980;28;20026;-75
2021/09/03 06:27:03;;;;;;;37.78;22.20;;;;;;;12.70;86.95;101914.03;4983963;28;20031;-76
2021/09/03 06:29:41;;;;;;;33.00;20.73;;;;;;;12.75;87.61;101924.00;4988279;28;20070;-74
2021/09/03 06:32:08;;;;;;;35.45;19.52;;;;;;;12.80;87.54;101914.00;4985908;28;20069;-75
2021/09/03 06:34:35;;;;;;;36.35;20.23;;;;;;;12.89;87.65;101914.94;4968412;28;20022;-75
2021/09/03 06:37:01;;;;;;;31.60;19.27;;;;;;;12.98;87.45;101916.69;4985366;28;20073;-75
2021/09/03 06:39:26;;;;;;;37.92;22.08;;;;;;;13.16;87.50;101919.31;4986139;28;20023;-74
2021/09/03 06:41:52;;;;;;;34.80;20.48;;;;;;;13.32;87.48;101916.09;4987952;28;20030;-74
2021/09/03 06:44:18;;;;;;;41.47;22.27;;;;;;;13.52;87.32;101917.59;5017063;28;20030;-74
2021/09/03 06:46:43;;;;;;;40.00;20.45;;;;;;;13.74;87.25;101913.72;5004884;28;20504;-74
2021/09/03 06:49:09;;;;;;;35.50;20.70;;;;;;;13.98;87.09;101920.94;5006982;28;20034;-74
2021/09/03 06:51:34;;;;;;;38.28;21.38;;;;;;;14.28;86.15;101916.25;5002381;28;20469;-75
2021/09/03 06:53:59;;;;;;;51.40;27.42;;;;;;;14.66;85.19;101919.44;5000839;28;20096;-73
2021/09/03 06:56:25;;;;;;;42.58;22.45;;;;;;;15.18;83.32;101926.31;4986515;28;20038;-72
2021/09/03 06:58:50;;;;;;;36.05;19.60;;;;;;;15.88;81.04;101930.38;4991254;28;20054;-74
2021/09/03 07:01:16;;;;;;;34.70;20.38;;;;;;;16.70;77.29;101914.53;5004446;28;20034;-74
2021/09/03 07:03:43;;;;;;;36.25;20.02;;;;;;;17.48;74.12;101918.91;4989696;28;20376;-73
2021/09/03 07:06:08;;;;;;;43.20;22.85;;;;;;;17.95;72.68;101900.53;5001661;28;20037;-75
2021/09/03 07:08:34;;;;;;;34.67;19.33;;;;;;;18.51;69.60;101910.63;5005741;28;20239;-75
2021/09/03 07:10:59;;;;;;;30.92;19.33;;;;;;;18.82;69.14;101911.28;5004094;28;20061;-73
2021/09/03 07:13:25;;;;;;;36.40;18.30;;;;;;;19.19;67.12;101914.75;4999314;28;20404;-76
2021/09/03 07:15:50;;;;;;;31.25;18.13;;;;;;;19.48;66.36;101905.09;4999243;28;20045;-75
2021/09/03 07:18:15;;;;;;;31.20;16.67;;;;;;;19.80;64.87;101903.78;4990345;28;20551;-76
2021/09/03 07:20:41;;;;;;;28.45;17.10;;;;;;;20.09;65.03;101906.41;5002473;28;20042;-77
2021/09/03 07:23:06;;;;;;;26.45;15.18;;;;;;;20.47;64.07;101911.31;5000261;28;20034;-77
2021/09/03 07:25:32;;;;;;;29.75;17.15;;;;;;;20.46;63.64;101901.78;4999768;28;20042;-76
2021/09/03 07:27:57;;;;;;;26.33;17.30;;;;;;;20.96;62.28;101899.75;4985721;28;20042;-76
2021/09/03 07:30:23;;;;;;;23.42;15.20;;;;;;;21.22;60.24;101903.50;4985999;28;20038;-77
2021/09/03 07:32:48;;;;;;;24.65;14.70;;;;;;;21.55;59.52;101893.00;5002861;28;20488;-77
2021/09/03 07:35:14;;;;;;;24.52;15.50;;;;;;;21.69;58.84;101899.09;4985734;28;20058;-77
2021/09/03 07:37:41;;;;;;;26.52;14.15;;;;;;;21.74;58.11;101894.84;4999298;28;20041;-76
2021/09/03 07:40:07;;;;;;;24.35;14.20;;;;;;;21.76;57.55;101894.63;5000218;28;20049;-78
2021/09/03 07:42:33;;;;;;;24.05;13.68;;;;;;;21.82;57.68;101885.88;4999888;28;20110;-77
2021/09/03 07:45:00;;;;;;;22.60;13.18;;;;;;;22.28;56.34;101892.13;5005197;28;20515;-77
2021/09/03 07:47:26;;;;;;;20.05;12.88;;;;;;;22.19;56.35;101885.41;5004695;28;20472;-77
2021/09/03 07:49:51;;;;;;;30.17;12.55;;;;;;;22.48;55.14;101884.94;5009809;28;20034;-77
2021/09/03 07:52:17;;;;;;;18.50;11.05;;;;;;;22.73;55.20;101885.06;5002663;28;20646;-77
2021/09/03 07:54:44;;;;;;;21.80;10.63;;;;;;;22.99;54.68;101885.13;4987383;28;20026;-76
2021/09/03 07:57:10;;;;;;;24.05;14.45;;;;;;;22.71;53.67;101883.63;5006409;28;20034;-77
2021/09/03 07:59:36;;;;;;;20.80;13.77;;;;;;;22.45;55.20;101882.75;5005249;28;20085;-76
2021/09/03 08:02:01;;;;;;;23.83;13.88;;;;;;;22.47;56.31;101878.06;5004798;28;20492;-77
2021/09/03 08:04:27;;;;;;;23.02;13.45;;;;;;;23.01;55.93;101886.53;4990297;28;20089;-76
2021/09/03 08:06:52;;;;;;;29.08;15.30;;;;;;;23.20;54.10;101884.00;4990564;28;20034;-77
2021/09/03 08:09:18;;;;;;;26.75;15.60;;;;;;;23.40;54.98;101891.81;5006558;28;20050;-77
2021/09/03 08:11:43;;;;;;;27.42;15.23;;;;;;;23.44;54.63;101885.84;5006560;28;20033;-76
2021/09/03 08:14:09;;;;;;;20.75;13.10;;;;;;;23.78;53.63;101873.13;4991472;28;20073;-76
2021/09/03 08:16:34;;;;;;;23.75;14.32;;;;;;;23.81;53.54;101874.56;4992473;28;20037;-77
2021/09/03 08:19:00;;;;;;;25.08;14.25;;;;;;;24.17;52.79;101881.75;5006884;28;20038;-77
2021/09/03 08:21:26;;;;;;;21.60;13.27;;;;;;;24.34;50.55;101878.50;5005192;28;20035;-77
2021/09/03 08:23:51;;;;;;;19.33;13.43;;;;;;;24.34;52.03;101879.31;5003142;28;20531;-77
2021/09/03 08:26:16;;;;;;;18.10;12.10;;;;;;;24.76;51.23;101882.06;5002928;28;20572;-77
2021/09/03 08:28:42;;;;;;;18.30;12.20;;;;;;;24.84;49.27;101880.94;4991245;28;20022;-77
2021/09/03 08:31:07;;;;;;;16.95;11.90;;;;;;;25.00;49.80;101874.19;4992701;28;20428;-80
2021/09/03 08:33:33;;;;;;;19.85;12.43;;;;;;;24.74;48.49;101878.03;5007494;28;20096;-77
2021/09/03 08:35:59;;;;;;;16.38;11.43;;;;;;;24.64;49.13;101878.56;5006260;28;20227;-77
2021/09/03 08:38:24;;;;;;;15.98;10.80;;;;;;;25.03;47.56;101879.03;4992211;28;20449;-75
2021/09/03 08:40:49;;;;;;;14.88;9.68;;;;;;;25.26;46.54;101873.03;4995947;28;20069;-76
2021/09/03 08:43:19;;;;;;;16.67;10.43;;;;;;;25.15;47.06;101879.88;5017027;28;20400;-76
2021/09/03 08:45:45;;;;;;;18.13;10.98;;;;;;;25.11;47.65;101885.84;5009524;28;20034;-76
2021/09/03 08:48:11;;;;;;;16.30;10.98;;;;;;;25.04;47.54;101881.47;4991722;28;20065;-77
2021/09/03 08:50:37;;;;;;;15.50;10.38;;;;;;;25.24;48.10;101881.22;5007934;28;20616;-77
2021/09/03 08:53:02;;;;;;;21.60;12.35;;;;;;;25.17;46.66;101871.72;4990643;28;20038;-75
2021/09/03 08:55:28;;;;;;;17.30;10.98;;;;;;;25.35;47.81;101876.13;5005321;28;20033;-77
2021/09/03 08:57:53;;;;;;;20.55;11.75;;;;;;;25.60;46.65;101878.59;4989750;28;20030;-75
2021/09/03 09:00:22;;;;;;;16.08;10.48;;;;;;;25.71;46.78;101885.75;5001605;28;20038;-77
2021/09/03 09:03:18;;;;;;;28.23;12.25;;;;;;;25.38;45.78;101881.00;4986363;28;20034;-74
2021/09/03 09:05:43;;;;;;;17.92;11.27;;;;;;;25.31;47.88;101883.75;4975103;28;20154;-76
2021/09/03 09:08:09;;;;;;;14.88;10.85;;;;;;;25.59;47.57;101874.31;5002401;28;20038;-77
2021/09/03 09:10:34;;;;;;;19.20;12.10;;;;;;;25.38;46.86;101878.34;4990586;28;20030;-74
2021/09/03 09:13:00;;;;;;;17.42;12.10;;;;;;;25.36;46.13;101875.91;4987325;28;20060;-76
2021/09/03 09:15:26;;;;;;;17.80;10.88;;;;;;;25.27;47.91;101879.94;5003433;28;20419;-77
2021/09/03 09:17:52;;;;;;;19.35;12.02;;;;;;;25.33;47.64;101883.53;4988911;28;20030;-77
2021/09/03 09:20:17;;;;;;;16.80;11.70;;;;;;;25.52;47.21;101873.59;4993869;28;20031;-77
2021/09/03 09:23:09;;;;;;;19.65;10.65;;;;;;;25.45;47.83;101874.53;4984852;28;20030;-78
2021/09/03 09:25:36;;;;;;;17.00;10.85;;;;;;;25.27;47.94;101873.81;4979941;28;20046;-76
2021/09/03 09:28:14;;;;;;;16.50;10.85;;;;;;;25.34;50.16;101874.53;5004990;28;20035;-77
2021/09/03 09:30:42;;;;;;;16.45;10.68;;;;;;;25.58;48.33;101876.16;4999701;28;20038;-74
2021/09/03 09:33:17;;;;;;;15.38;10.45;;;;;;;25.64;47.43;101864.63;4990794;28;20041;-78
2021/09/03 09:35:46;;;;;;;19.60;11.85;;;;;;;25.52;48.74;101863.78;4992162;28;20065;-78
2021/09/03 09:38:14;;;;;;;19.88;11.85;;;;;;;25.82;47.71;101855.72;4995458;28;20038;-78
2021/09/03 09:40:55;;;;;;;17.02;10.02;;;;;;;25.70;47.13;101856.78;4995614;28;20037;-76
2021/09/03 09:43:27;;;;;;;16.08;10.77;;;;;;;25.58;47.86;101854.94;5008878;28;20045;-77
2021/09/03 09:46:14;;;;;;;18.15;11.68;;;;;;;25.58;47.82;101852.28;4990439;28;20523;-78
2021/09/03 09:48:52;;;;;;;18.08;10.82;;;;;;;25.43;46.49;101858.03;4992538;28;20038;-76
2021/09/03 09:51:35;;;;;;;16.73;11.02;;;;;;;25.39;49.55;101848.09;5009211;28;20124;-78
2021/09/03 09:54:11;;;;;;;21.33;11.40;;;;;;;25.43;47.85;101849.28;4994628;28;20034;-78
2021/09/03 09:56:39;;;;;;;18.35;10.98;;;;;;;25.17;49.30;101842.53;4998257;28;20021;-78
2021/09/03 09:59:06;;;;;;;15.10;9.82;;;;;;;25.33;49.64;101847.16;4989519;28;20045;-78
2021/09/03 10:01:35;;;;;;;21.10;10.10;;;;;;;25.33;50.68;101844.50;5009545;28;20079;-78
2021/09/03 10:04:04;;;;;;;17.45;10.23;;;;;;;25.30;49.66;101846.81;5006102;28;20048;-78
2021/09/03 10:06:31;;;;;;;18.05;10.07;;;;;;;25.48;49.14;101843.25;4997814;28;20491;-78
2021/09/03 10:08:58;;;;;;;16.85;10.40;;;;;;;25.44;48.36;101834.94;5008676;28;20030;-78
2021/09/03 10:11:25;;;;;;;16.52;8.55;;;;;;;25.56;47.70;101834.94;5009167;28;20507;-77
2021/09/03 10:13:51;;;;;;;15.77;10.02;;;;;;;25.66;45.99;101824.56;4992689;28;20041;-74
2021/09/03 10:16:17;;;;;;;16.23;8.57;;;;;;;25.57;48.89;101840.03;4994310;28;20033;-78
2021/09/03 10:18:44;;;;;;;19.35;9.43;;;;;;;25.52;46.65;101823.97;5005799;28;20655;-79
2021/09/03 10:21:11;;;;;;;16.73;10.30;;;;;;;25.42;47.32;101835.16;4989858;28;20046;-79
2021/09/03 10:23:51;;;;;;;18.00;9.23;;;;;;;25.32;47.19;101820.88;4987117;28;20732;-78
2021/09/03 10:26:20;;;;;;;16.83;8.65;;;;;;;25.31;47.95;101825.34;4987502;28;20049;-78
2021/09/03 10:28:46;;;;;;;16.60;9.80;;;;;;;25.27;47.62;101818.91;4988342;28;20416;-79
2021/09/03 10:31:11;;;;;;;15.82;8.70;;;;;;;25.27;46.11;101815.44;4986705;28;20057;-77
2021/09/03 10:33:39;;;;;;;21.08;9.82;;;;;;;25.08;47.09;101814.69;4991823;28;20040;-78
2021/09/03 10:36:05;;;;;;;12.68;8.02;;;;;;;25.22;46.34;101816.91;5004483;28;20436;-78
2021/09/03 10:38:34;;;;;;;12.02;8.10;;;;;;;25.25;45.66;101811.16;5003512;28;20030;-79
2021/09/03 10:41:02;;;;;;;13.98;7.43;;;;;;;25.29;45.85;101813.38;4988154;28;20454;-78
2021/09/03 10:43:46;;;;;;;12.25;6.93;;;;;;;25.14;46.96;101816.44;4999241;28;20698;-76
2021/09/03 10:46:14;;;;;;;16.80;7.57;;;;;;;25.23;46.36;101809.78;4990102;28;20038;-77
2021/09/03 10:48:48;;;;;;;13.35;7.15;;;;;;;25.64;43.94;101810.72;5009614;28;20034;-73
2021/09/03 10:51:32;;;;;;;17.95;7.35;;;;;;;25.68;44.83;101795.13;5014080;28;20034;-78
2021/09/03 10:53:58;;;;;;;15.48;7.05;;;;;;;25.69;45.41;101792.22;5018723;28;20052;-77
2021/09/03 10:56:24;;;;;;;12.18;6.93;;;;;;;25.91;44.93;101792.41;5000464;28;20030;-78
2021/09/03 10:59:06;;;;;;;12.38;7.47;;;;;;;25.79;45.22;101781.81;4995836;28;20034;-78
2021/09/03 11:01:35;;;;;;;14.38;8.05;;;;;;;25.83;43.38;101782.16;4997197;28;20297;-76
2021/09/03 11:04:14;;;;;;;13.13;7.43;;;;;;;25.58;43.83;101783.25;4998944;28;20597;-78
2021/09/03 11:07:04;;;;;;;16.92;6.88;;;;;;;25.69;44.77;101773.63;4999533;28;20056;-78